Flight Number: EUR1352 Duration: 1:30
Departure: Venice Marco Polo (LIPZ) at 18:30 Distance: 440 Nm
Arrival: Palermo Airport (LICJ) at 20:00 Equipment: B737

Weather Information
Venezia / Tessera, Italy (LIPZ) 45-30N 012-20E 6M Feb 24, 2018 - 12:50 AM EST / 2018.02.24 0550 UTC
Wind: from the NE (040 degrees) at 17 MPH (15 KT):0
Visibility: greater than 7 mile(s):0 Temperature: 41 F (5 C) Dew Point: 30 F (-1 C) Relative Humidity: 65% Pressure (altimeter): 29.80 in. Hg (1009 hPa)
ob: LIPZ 240550Z 04015KT CAVOK 05/M01 Q1009 NOSIG cycle: 6
Sunrise: 06:00 Sunset: 16:47 (UTC)

Palermo / Punta Raisi, Italy (LICJ) 38-11N 013-06E 21M Feb 24, 2018 - 12:50 AM EST / 2018.02.24 0550 UTC
Wind: from the W (260 degrees) at 25 MPH (22 KT):0
Visibility: greater than 7 mile(s):0
Sky conditions: partly cloudy Temperature: 55 F (13 C) Dew Point: 41 F (5 C) Relative Humidity: 58% Pressure (altimeter): 29.68 in. Hg (1005 hPa)
ob: LICJ 240550Z 26022KT 9999 SCT050 13/05 Q1005 cycle: 6
Sunrise: 05:48 Sunset: 16:52 (UTC)

TAF:2018/02/24 06:21 TAF LICJ 240500Z 2406/2506 27020KT 9999 SCT018 BECMG 2411/2413 20013KT TEMPO 2503/2506 RA

Previous Pireps for this route
Date Aircraft Flight time Fuel used Landing rate On time
2013-04-01B73701.357762-275Yes
2013-04-04B7371.4110800-319No
2013-04-08B7371.359500-257No
2013-07-12B7371.40120000Yes
2014-05-15B7371.55115000No
2015-01-26B7371.2281120No
2015-10-13B73701.319100-399Yes
2016-03-17B73701.429608-160No
2016-08-31B73701.1813466-94Yes
(pireps marked green are flown by you)

Route map